Time;durP1;ratioP1;P1;durP2;ratioP2;P2;SDS_P1;SDS_P2;PMS_P1;PMS_P2;Temp;Humidity;BMP_temperature;BMP_pressure;BME280_temperature;BME280_humidity;BME280_pressure;Samples;Min_cycle;Max_cycle;Signal;HPM_P1;HPM_P2
2023/09/27 00:00:06;;;;;;;11.68;4.65;;;;;;;19.00;77.95;100617.00;5049796;28;20431;-72
2023/09/27 00:02:31;;;;;;;13.55;5.40;;;;;;;19.17;77.89;100651.09;5049623;28;20017;-71
2023/09/27 00:04:57;;;;;;;9.07;4.60;;;;;;;19.09;78.29;100645.84;5049715;28;20029;-72
2023/09/27 00:07:23;;;;;;;12.35;4.47;;;;;;;19.01;78.48;100621.38;5048951;28;20097;-73
2023/09/27 00:09:48;;;;;;;12.50;4.72;;;;;;;19.14;78.51;100645.84;5031507;28;20075;-75
2023/09/27 00:12:15;;;;;;;11.80;4.97;;;;;;;19.10;79.14;100631.00;5049068;28;20017;-74
2023/09/27 00:14:41;;;;;;;14.95;5.13;;;;;;;19.12;79.19;100642.34;5049463;28;20082;-72
2023/09/27 00:17:06;;;;;;;12.30;4.43;;;;;;;19.07;79.68;100645.81;5031250;28;20447;-76
2023/09/27 00:19:31;;;;;;;13.52;5.18;;;;;;;19.05;79.80;100628.34;5049301;28;20036;-75
2023/09/27 00:21:57;;;;;;;13.13;4.28;;;;;;;18.70;79.89;100569.72;5031523;28;20067;-74
2023/09/27 00:24:22;;;;;;;11.48;4.50;;;;;;;19.05;80.39;100626.63;5031477;28;20476;-73
2023/09/27 00:26:48;;;;;;;12.57;5.07;;;;;;;19.13;80.54;100634.50;5030989;28;20021;-76
2023/09/27 00:29:13;;;;;;;12.32;4.80;;;;;;;19.15;80.27;100624.94;5031477;28;20025;-79
2023/09/27 00:31:39;;;;;;;10.73;4.43;;;;;;;19.15;80.22;100608.34;5048850;28;20078;-78
2023/09/27 00:34:04;;;;;;;10.07;4.68;;;;;;;19.32;79.54;100629.34;5048125;28;20028;-74
2023/09/27 00:36:30;;;;;;;20.15;5.05;;;;;;;19.23;79.87;100610.09;5049495;28;20435;-75
2023/09/27 00:38:55;;;;;;;11.85;4.45;;;;;;;19.06;80.21;100578.63;5031124;28;20056;-75
2023/09/27 00:41:22;;;;;;;15.05;5.07;;;;;;;19.24;79.64;100606.63;5047577;28;20521;-76
2023/09/27 00:43:48;;;;;;;8.75;4.75;;;;;;;19.20;78.94;100597.03;5049386;28;20037;-78
2023/09/27 00:46:16;;;;;;;16.25;4.85;;;;;;;19.23;78.32;100604.88;5049924;28;20033;-73
2023/09/27 00:48:43;;;;;;;11.52;4.40;;;;;;;19.35;77.97;100624.09;5053126;28;20492;-75
2023/09/27 00:51:08;;;;;;;15.60;4.43;;;;;;;19.26;78.09;100611.84;5053097;28;20131;-77
2023/09/27 00:53:36;;;;;;;10.57;4.88;;;;;;;18.84;77.68;100538.44;5034838;28;20115;-77
2023/09/27 00:56:02;;;;;;;9.65;4.22;;;;;;;19.27;77.46;100608.38;5052520;28;20492;-75
2023/09/27 00:58:30;;;;;;;9.85;4.18;;;;;;;19.19;77.40;100604.84;5035045;28;20032;-78
2023/09/27 01:00:57;;;;;;;11.82;4.50;;;;;;;18.98;77.04;100564.66;5052340;28;20489;-76
2023/09/27 01:03:23;;;;;;;14.15;4.78;;;;;;;19.28;76.72;100604.91;5034776;28;20033;-74
2023/09/27 01:05:49;;;;;;;15.07;4.68;;;;;;;19.43;75.89;100627.63;5034919;28;20531;-74
2023/09/27 01:08:14;;;;;;;13.05;4.43;;;;;;;19.40;75.94;100622.38;5051861;28;20043;-76
2023/09/27 01:10:41;;;;;;;14.85;4.47;;;;;;;19.25;76.16;100610.09;5034693;28;20033;-74
2023/09/27 01:13:07;;;;;;;12.65;4.75;;;;;;;18.49;75.94;100488.56;5052381;28;20591;-74
2023/09/27 01:15:33;;;;;;;17.23;4.93;;;;;;;19.26;76.21;100614.47;5034173;28;20385;-77
2023/09/27 01:18:00;;;;;;;19.13;5.22;;;;;;;19.06;77.04;100596.94;5034449;28;20021;-74
2023/09/27 01:20:28;;;;;;;10.70;4.78;;;;;;;18.91;76.83;100587.28;5051749;28;20492;-78
2023/09/27 01:23:05;;;;;;;16.33;4.50;;;;;;;19.11;76.19;100609.19;5052001;28;20025;-73
2023/09/27 01:25:38;;;;;;;18.17;4.72;;;;;;;19.03;76.49;100598.72;5034233;28;20047;-74
2023/09/27 01:28:06;;;;;;;9.45;4.75;;;;;;;19.02;76.64;100615.28;5051830;28;20021;-74
2023/09/27 01:30:34;;;;;;;8.65;4.43;;;;;;;18.90;77.06;100613.41;5052238;28;20404;-74
2023/09/27 01:33:08;;;;;;;11.65;4.70;;;;;;;18.79;76.90;100597.69;5033880;28;20033;-74
2023/09/27 01:35:41;;;;;;;10.15;4.25;;;;;;;18.81;76.88;100598.56;5051724;28;20609;-74
2023/09/27 01:38:08;;;;;;;12.75;4.50;;;;;;;18.72;76.96;100596.78;5033927;28;20078;-77
2023/09/27 01:40:44;;;;;;;9.40;4.15;;;;;;;18.88;77.00;100621.28;5034205;28;20393;-78
2023/09/27 01:43:11;;;;;;;8.48;4.65;;;;;;;18.75;77.12;100604.66;5051930;28;20031;-74
2023/09/27 01:45:37;;;;;;;11.02;4.40;;;;;;;18.67;77.84;100611.56;5051571;28;20507;-72
2023/09/27 01:48:03;;;;;;;11.38;4.40;;;;;;;18.64;77.93;100611.56;5033373;28;20128;-75
2023/09/27 01:50:32;;;;;;;8.73;3.97;;;;;;;18.51;77.67;100605.34;5051736;28;20053;-78
2023/09/27 01:52:58;;;;;;;11.05;4.32;;;;;;;18.52;78.23;100614.97;5051299;28;20071;-77
2023/09/27 01:55:24;;;;;;;14.63;4.72;;;;;;;18.51;78.07;100620.19;5048039;28;20743;-74
2023/09/27 01:57:50;;;;;;;13.23;4.63;;;;;;;18.48;77.86;100613.19;5051194;28;20025;-73
2023/09/27 02:00:17;;;;;;;9.93;4.18;;;;;;;18.38;78.54;100595.69;5051368;28;20033;-73
2023/09/27 02:02:55;;;;;;;11.80;4.63;;;;;;;18.45;78.61;100621.00;5051469;28;20103;-73
2023/09/27 02:05:21;;;;;;;10.20;4.82;;;;;;;18.42;78.60;100624.47;5051475;28;20033;-73
2023/09/27 02:07:46;;;;;;;11.40;4.47;;;;;;;18.26;78.93;100597.34;5051028;28;20459;-73
2023/09/27 02:10:12;;;;;;;10.48;4.70;;;;;;;18.22;78.62;100584.25;5051319;28;20029;-71
2023/09/27 02:12:38;;;;;;;11.07;4.43;;;;;;;18.33;78.69;100600.91;5033122;28;20032;-77
2023/09/27 02:15:09;;;;;;;10.98;4.05;;;;;;;18.37;78.99;100607.88;5051481;28;20033;-77
2023/09/27 02:17:38;;;;;;;13.00;4.78;;;;;;;18.42;79.24;100616.63;5051002;28;20120;-73
2023/09/27 02:20:07;;;;;;;11.95;4.45;;;;;;;18.48;79.83;100614.91;5051492;28;20151;-79
2023/09/27 02:22:37;;;;;;;12.70;4.50;;;;;;;18.43;80.70;100615.78;5033339;28;20408;-73
2023/09/27 02:25:05;;;;;;;10.73;5.03;;;;;;;18.35;80.85;100614.81;5050852;28;20060;-74
2023/09/27 02:27:31;;;;;;;11.65;4.85;;;;;;;18.18;81.58;100595.53;5050008;28;20563;-73
2023/09/27 02:29:56;;;;;;;9.32;4.70;;;;;;;18.31;81.20;100620.03;5051077;28;20032;-75
2023/09/27 02:32:22;;;;;;;12.82;4.65;;;;;;;18.11;81.09;100594.63;5032575;28;20486;-72
2023/09/27 02:34:47;;;;;;;14.02;4.07;;;;;;;18.21;81.15;100632.16;5033058;28;20029;-75
2023/09/27 02:37:16;;;;;;;12.38;4.72;;;;;;;18.18;81.07;100632.13;5050793;28;20036;-74
2023/09/27 02:39:42;;;;;;;12.85;4.47;;;;;;;18.07;81.01;100611.16;5050832;28;20071;-74
2023/09/27 02:42:10;;;;;;;8.73;3.92;;;;;;;18.03;81.01;100596.28;5050803;28;20036;-77
2023/09/27 02:44:36;;;;;;;11.48;4.63;;;;;;;18.09;81.54;100625.97;5050414;28;20416;-73
2023/09/27 02:47:02;;;;;;;9.05;4.78;;;;;;;17.68;81.34;100562.88;5032908;28;20029;-74
2023/09/27 02:49:28;;;;;;;10.13;4.57;;;;;;;18.02;81.72;100620.66;5050574;28;20044;-74
2023/09/27 02:51:55;;;;;;;11.93;4.38;;;;;;;18.02;81.23;100626.78;5050485;28;20040;-73
2023/09/27 02:54:21;;;;;;;10.77;4.82;;;;;;;17.89;81.66;100599.63;5050493;28;20032;-78
2023/09/27 02:56:47;;;;;;;13.07;4.72;;;;;;;17.98;81.71;100601.50;5050263;28;20040;-74
2023/09/27 02:59:14;;;;;;;12.35;4.68;;;;;;;18.06;81.96;100612.88;5050295;28;20021;-73
2023/09/27 03:01:40;;;;;;;11.98;5.07;;;;;;;18.06;81.79;100615.47;5050410;28;20051;-73
2023/09/27 03:04:10;;;;;;;11.57;4.63;;;;;;;18.07;81.97;100619.00;5032236;28;20017;-73
2023/09/27 03:06:37;;;;;;;10.30;4.20;;;;;;;18.03;81.80;100612.84;5032548;28;20090;-74
2023/09/27 03:09:08;;;;;;;14.68;4.40;;;;;;;17.72;81.82;100556.81;5031384;28;20029;-75
2023/09/27 03:11:36;;;;;;;9.23;4.35;;;;;;;18.02;81.70;100616.31;5050248;28;20109;-72
2023/09/27 03:14:02;;;;;;;10.05;4.57;;;;;;;17.20;81.71;100487.59;5050308;28;20028;-77
2023/09/27 03:16:29;;;;;;;7.13;4.07;;;;;;;17.94;81.69;100621.50;5032410;28;20140;-74
2023/09/27 03:18:54;;;;;;;10.98;4.43;;;;;;;17.74;82.51;100609.94;5049509;28;20032;-75
2023/09/27 03:21:20;;;;;;;14.18;4.85;;;;;;;17.57;82.49;100583.66;5031987;28;20060;-72
2023/09/27 03:23:46;;;;;;;11.82;4.55;;;;;;;17.62;82.83;100606.34;5032030;28;20484;-73
2023/09/27 03:26:12;;;;;;;16.42;5.13;;;;;;;17.77;82.91;100642.19;5032470;28;20568;-73
2023/09/27 03:28:37;;;;;;;13.98;4.95;;;;;;;17.72;82.66;100622.09;5032273;28;20017;-71
2023/09/27 03:31:05;;;;;;;11.82;4.38;;;;;;;17.62;82.96;100613.31;5049999;28;20021;-79
2023/09/27 03:33:30;;;;;;;11.88;4.90;;;;;;;17.74;83.09;100626.47;5031605;28;20025;-75
2023/09/27 03:35:57;;;;;;;13.20;4.50;;;;;;;17.67;83.18;100622.06;5031871;28;20094;-74
2023/09/27 03:38:23;;;;;;;12.38;4.30;;;;;;;17.56;83.63;100615.84;5049448;28;20056;-73
2023/09/27 03:40:48;;;;;;;11.90;4.82;;;;;;;17.10;83.67;100545.78;5050019;28;20051;-74
2023/09/27 03:43:14;;;;;;;12.30;4.63;;;;;;;17.63;83.39;100631.59;5049806;28;20025;-74
2023/09/27 03:45:40;;;;;;;9.02;4.65;;;;;;;17.64;82.63;100629.84;5045097;28;20116;-73
2023/09/27 03:48:05;;;;;;;14.20;5.30;;;;;;;17.74;82.72;100642.13;5049516;28;20048;-77
2023/09/27 03:50:31;;;;;;;11.27;4.68;;;;;;;17.56;82.43;100608.88;5050073;28;20055;-76
2023/09/27 03:52:57;;;;;;;14.32;5.13;;;;;;;17.32;82.75;100577.31;5049203;28;20024;-75
2023/09/27 03:55:23;;;;;;;18.20;4.85;;;;;;;17.59;83.26;100626.31;5049877;28;20052;-76
2023/09/27 03:57:48;;;;;;;15.18;5.22;;;;;;;17.50;83.88;100621.00;5032131;28;20484;-75
2023/09/27 04:00:16;;;;;;;17.33;4.43;;;;;;;16.03;83.90;100369.81;5049604;28;20033;-75
2023/09/27 04:02:42;;;;;;;11.90;5.18;;;;;;;17.48;84.54;100634.03;5049423;28;20437;-74
2023/09/27 04:05:09;;;;;;;14.77;5.45;;;;;;;17.42;84.58;100621.78;5049650;28;20108;-73
2023/09/27 04:07:35;;;;;;;12.18;5.00;;;;;;;17.55;84.83;100650.66;5049331;28;20025;-73
2023/09/27 04:10:01;;;;;;;19.88;5.53;;;;;;;17.48;85.11;100641.84;5031739;28;20021;-74
2023/09/27 04:12:26;;;;;;;12.73;5.15;;;;;;;17.50;85.20;100647.97;5049397;28;20029;-74
2023/09/27 04:14:52;;;;;;;18.63;5.38;;;;;;;17.44;85.41;100634.84;5049451;28;20021;-75
2023/09/27 04:17:18;;;;;;;122.32;10.57;;;;;;;17.26;86.04;100614.66;5049076;28;20035;-73
2023/09/27 04:19:43;;;;;;;19.10;5.57;;;;;;;17.44;85.99;100645.28;5049887;28;20539;-74
2023/09/27 04:22:10;;;;;;;12.75;5.18;;;;;;;17.42;85.62;100649.59;5052915;28;20091;-75
2023/09/27 04:24:36;;;;;;;21.10;5.20;;;;;;;17.29;86.27;100639.03;5053108;28;20048;-75
2023/09/27 04:27:02;;;;;;;14.63;5.07;;;;;;;16.93;85.93;100572.50;5052144;28;20030;-79
2023/09/27 04:29:27;;;;;;;16.70;5.47;;;;;;;17.40;86.18;100647.00;5037599;28;20103;-74
2023/09/27 04:31:53;;;;;;;13.52;5.32;;;;;;;17.34;85.54;100635.63;5035430;28;20361;-76
2023/09/27 04:34:18;;;;;;;15.02;4.78;;;;;;;16.88;85.47;100563.72;5053163;28;20040;-80
2023/09/27 04:36:44;;;;;;;13.65;4.72;;;;;;;17.34;85.56;100638.22;5052717;28;20021;-75
2023/09/27 04:39:18;;;;;;;16.20;4.78;;;;;;;17.32;85.51;100638.22;5035252;28;20039;-76
2023/09/27 04:41:46;;;;;;;16.70;5.30;;;;;;;17.42;85.65;100654.84;5052927;28;20025;-78
2023/09/27 04:44:12;;;;;;;19.60;4.88;;;;;;;17.43;85.60;100661.81;5053239;28;20479;-77
2023/09/27 04:46:39;;;;;;;15.20;5.18;;;;;;;17.41;85.54;100661.78;5052767;28;20021;-83
2023/09/27 04:49:04;;;;;;;17.10;5.13;;;;;;;17.14;85.62;100620.59;5034471;28;20423;-81
2023/09/27 04:51:30;;;;;;;19.02;4.95;;;;;;;17.23;85.46;100646.78;5047441;28;20045;-78
2023/09/27 04:54:00;;;;;;;13.57;4.47;;;;;;;17.39;85.12;100666.09;5051385;28;20021;-78
2023/09/27 04:56:32;;;;;;;21.75;6.00;;;;;;;17.33;84.79;100649.50;5034605;28;20036;-77
2023/09/27 04:59:07;;;;;;;17.52;5.38;;;;;;;17.23;84.86;100636.34;5045761;28;20066;-80
2023/09/27 05:01:32;;;;;;;16.15;5.22;;;;;;;16.91;84.82;100558.59;5052355;28;20162;-81
2023/09/27 05:03:58;;;;;;;12.60;4.65;;;;;;;17.38;85.21;100640.88;5050054;28;20502;-76
2023/09/27 05:06:24;;;;;;;25.10;5.53;;;;;;;17.41;84.65;100645.28;5050937;28;20120;-79
2023/09/27 05:08:50;;;;;;;95.65;10.70;;;;;;;17.44;84.90;100643.56;5030254;28;20067;-75
2023/09/27 05:11:18;;;;;;;15.70;4.60;;;;;;;17.58;85.02;100659.41;5045311;28;20091;-77
2023/09/27 05:13:45;;;;;;;16.17;4.93;;;;;;;17.57;84.78;100656.75;5052300;28;20400;-77
2023/09/27 05:16:10;;;;;;;15.13;4.78;;;;;;;17.66;85.11;100663.78;5050709;28;20408;-76
2023/09/27 05:18:36;;;;;;;20.08;4.80;;;;;;;17.60;85.25;100660.25;5034305;28;20013;-77
2023/09/27 05:21:08;;;;;;;13.10;4.70;;;;;;;17.13;85.25;100574.47;5052384;28;20062;-72
2023/09/27 05:23:34;;;;;;;16.50;5.32;;;;;;;17.61;85.26;100650.72;5052107;28;20112;-76
2023/09/27 05:26:00;;;;;;;13.65;4.90;;;;;;;17.68;86.20;100662.09;5052277;28;20036;-76
2023/09/27 05:28:25;;;;;;;23.10;5.80;;;;;;;17.79;87.12;100668.31;5052237;28;20850;-80
2023/09/27 05:30:51;;;;;;;16.52;5.28;;;;;;;17.75;87.25;100656.94;5051609;28;20024;-75
2023/09/27 05:33:18;;;;;;;12.55;4.40;;;;;;;17.88;86.85;100667.53;5051407;28;20020;-74
2023/09/27 05:35:43;;;;;;;14.50;4.72;;;;;;;17.86;86.54;100658.81;5052215;28;20032;-73
2023/09/27 05:38:09;;;;;;;12.00;5.03;;;;;;;17.91;86.56;100664.94;5051724;28;20021;-74
2023/09/27 05:40:34;;;;;;;11.75;4.93;;;;;;;17.93;86.75;100658.00;5033890;28;20484;-77
2023/09/27 05:43:01;;;;;;;13.55;5.00;;;;;;;18.12;87.12;100674.75;5050625;28;20472;-75
2023/09/27 05:45:26;;;;;;;14.93;5.10;;;;;;;18.22;88.11;100679.19;5048197;28;20500;-78
2023/09/27 05:47:52;;;;;;;11.95;5.38;;;;;;;18.19;87.37;100671.31;5051381;28;20079;-77
2023/09/27 05:50:17;;;;;;;14.27;4.90;;;;;;;18.40;85.59;100680.22;5050051;28;20053;-77
2023/09/27 05:52:44;;;;;;;12.73;5.10;;;;;;;18.37;86.82;100668.00;5033941;28;20090;-76
2023/09/27 05:55:11;;;;;;;21.77;5.97;;;;;;;18.24;85.50;100624.34;5051578;28;20025;-78
2023/09/27 05:57:38;;;;;;;11.30;4.88;;;;;;;18.59;85.42;100657.69;5051786;28;20377;-78
2023/09/27 06:00:15;;;;;;;17.38;5.20;;;;;;;18.72;83.80;100671.75;5051335;28;20029;-78
2023/09/27 06:02:40;;;;;;;14.32;4.97;;;;;;;18.80;85.16;100674.41;5043753;28;20396;-78
2023/09/27 06:05:06;;;;;;;12.10;5.00;;;;;;;18.90;85.85;100674.50;5051191;28;20029;-76
2023/09/27 06:07:33;;;;;;;11.38;5.60;;;;;;;18.66;84.46;100614.19;5028471;28;20519;-82
2023/09/27 06:09:59;;;;;;;17.30;5.93;;;;;;;18.69;84.64;100601.09;5029086;28;20048;-75
2023/09/27 06:12:25;;;;;;;18.13;5.47;;;;;;;19.22;84.56;100673.78;5028192;28;20128;-78
2023/09/27 06:14:50;;;;;;;12.68;5.13;;;;;;;19.41;85.13;100673.88;5026198;28;20068;-78
2023/09/27 06:17:17;;;;;;;18.85;6.05;;;;;;;19.55;84.48;100677.41;5028685;28;20077;-80
2023/09/27 06:19:43;;;;;;;17.48;5.75;;;;;;;19.78;82.66;100694.94;5028799;28;20060;-77
2023/09/27 06:22:08;;;;;;;12.65;5.75;;;;;;;19.38;83.38;100611.91;5028388;28;20479;-76
2023/09/27 06:24:34;;;;;;;19.70;6.15;;;;;;;19.92;81.80;100681.03;5028551;28;20040;-72
2023/09/27 06:26:59;;;;;;;20.38;6.55;;;;;;;20.06;81.02;100687.16;5028524;28;20128;-73
2023/09/27 06:29:25;;;;;;;14.45;5.60;;;;;;;20.13;81.15;100694.16;5011728;28;20480;-75
2023/09/27 06:31:51;;;;;;;20.15;5.07;;;;;;;20.35;80.80;100691.56;4953230;28;20067;-74
2023/09/27 06:34:18;;;;;;;12.85;5.10;;;;;;;20.34;80.13;100674.09;4953598;28;20043;-78
2023/09/27 06:36:44;;;;;;;12.45;5.30;;;;;;;20.48;79.38;100677.56;4969267;28;20070;-76
2023/09/27 06:39:15;;;;;;;13.27;5.57;;;;;;;20.38;80.17;100660.09;4984442;28;20072;-77
2023/09/27 06:41:45;;;;;;;14.60;5.38;;;;;;;20.01;80.40;100599.81;4988391;28;20062;-76
2023/09/27 06:44:10;;;;;;;10.55;5.50;;;;;;;20.53;80.51;100699.41;4971708;28;20093;-78
2023/09/27 06:46:37;;;;;;;13.88;5.65;;;;;;;20.65;79.84;100692.44;4988380;28;20026;-78
2023/09/27 06:49:03;;;;;;;16.52;5.43;;;;;;;20.69;79.68;100696.78;4988715;28;20564;-77
2023/09/27 06:51:29;;;;;;;12.40;5.00;;;;;;;20.81;78.61;100701.16;4988795;28;20050;-81
2023/09/27 06:53:55;;;;;;;15.13;5.63;;;;;;;20.98;81.07;100688.88;4988994;28;20037;-76
2023/09/27 06:56:21;;;;;;;15.80;5.20;;;;;;;21.09;78.96;100685.38;4988412;28;20784;-76
2023/09/27 06:58:48;;;;;;;12.55;5.70;;;;;;;21.11;80.08;100673.09;4987967;28;20074;-78
2023/09/27 07:01:14;;;;;;;13.30;6.07;;;;;;;21.23;78.47;100678.31;4988186;28;20041;-78
2023/09/27 07:03:40;;;;;;;16.42;7.93;;;;;;;21.35;76.82;100693.16;4987798;28;20430;-79
2023/09/27 07:06:05;;;;;;;16.95;6.30;;;;;;;21.34;77.17;100684.38;4988327;28;20034;-78
2023/09/27 07:08:31;;;;;;;15.02;5.80;;;;;;;21.43;78.12;100699.25;4999740;28;20044;-76
2023/09/27 07:11:08;;;;;;;19.42;6.70;;;;;;;21.42;77.17;100673.88;5049803;28;20542;-75
2023/09/27 07:13:34;;;;;;;9.95;4.97;;;;;;;21.54;77.64;100672.91;5041824;28;20036;-79
2023/09/27 07:16:02;;;;;;;17.17;5.05;;;;;;;21.70;75.98;100683.41;5031597;28;20118;-78
2023/09/27 07:18:27;;;;;;;9.95;4.32;;;;;;;21.87;75.06;100694.69;5049754;28;20037;-76
2023/09/27 07:20:53;;;;;;;10.07;4.78;;;;;;;21.84;76.35;100686.81;5031360;28;20033;-77
2023/09/27 07:23:20;;;;;;;17.40;5.00;;;;;;;22.02;76.19;100704.22;5049044;28;20025;-72
2023/09/27 07:25:47;;;;;;;22.65;5.95;;;;;;;22.06;75.54;100698.06;5049885;28;20023;-78
2023/09/27 07:28:13;;;;;;;16.23;5.40;;;;;;;21.70;75.60;100618.56;5032353;28;20037;-75
2023/09/27 07:30:38;;;;;;;15.82;5.05;;;;;;;22.25;73.71;100676.88;5032130;28;20025;-79
2023/09/27 07:33:10;;;;;;;16.95;5.47;;;;;;;22.58;73.35;100709.06;5031923;28;20040;-78
2023/09/27 07:35:43;;;;;;;23.85;5.95;;;;;;;22.47;74.71;100656.56;5049203;28;20025;-80
2023/09/27 07:38:11;;;;;;;13.07;4.43;;;;;;;23.05;70.11;100698.97;5031648;28;20075;-79
2023/09/27 07:40:36;;;;;;;12.25;4.45;;;;;;;23.35;67.99;100697.78;5049815;28;20025;-81
2023/09/27 07:43:02;;;;;;;16.50;4.32;;;;;;;23.53;66.34;100694.03;5041949;28;20377;-77
2023/09/27 07:45:33;;;;;;;16.05;4.93;;;;;;;23.62;66.38;100686.91;5049631;28;20036;-79
2023/09/27 07:47:58;;;;;;;19.48;5.47;;;;;;;23.83;65.77;100704.19;5032705;28;20025;-79
2023/09/27 07:50:28;;;;;;;22.42;5.63;;;;;;;23.98;64.27;100690.78;5047931;28;20079;-79
2023/09/27 07:52:55;;;;;;;13.82;5.07;;;;;;;24.02;64.25;100691.63;5049434;28;20040;-77
2023/09/27 07:55:21;;;;;;;20.88;5.30;;;;;;;24.18;64.79;100706.31;5017217;28;20432;-77
2023/09/27 07:58:07;;;;;;;13.88;4.78;;;;;;;23.82;64.18;100647.94;5033510;28;20107;-79
2023/09/27 08:00:33;;;;;;;12.95;4.63;;;;;;;24.13;64.96;100699.38;5034236;28;20536;-78
2023/09/27 08:02:59;;;;;;;17.42;4.97;;;;;;;24.13;64.05;100694.09;5033290;28;20040;-78
2023/09/27 08:05:25;;;;;;;20.73;5.63;;;;;;;23.93;65.75;100658.34;5017261;28;20030;-80
2023/09/27 08:07:51;;;;;;;11.63;4.60;;;;;;;24.29;63.16;100710.53;5032884;28;20100;-80
2023/09/27 08:10:17;;;;;;;15.15;4.32;;;;;;;24.28;63.32;100687.69;5033957;28;20128;-80
2023/09/27 08:12:43;;;;;;;12.88;4.25;;;;;;;24.42;62.70;100695.38;5016792;28;20021;-77
2023/09/27 08:15:10;;;;;;;9.93;4.10;;;;;;;24.27;62.59;100696.50;4974465;28;20467;-78
2023/09/27 08:17:36;;;;;;;10.95;4.03;;;;;;;24.23;62.35;100709.72;4973973;28;20229;-79
2023/09/27 08:20:09;;;;;;;13.95;4.53;;;;;;;24.05;62.76;100665.19;4958006;28;20141;-79
2023/09/27 08:22:36;;;;;;;14.25;4.45;;;;;;;24.35;62.54;100705.16;4973994;28;20035;-81
2023/09/27 08:25:04;;;;;;;19.00;5.32;;;;;;;24.65;62.11;100714.38;4958235;28;20051;-82
2023/09/27 08:27:29;;;;;;;20.88;6.25;;;;;;;24.62;61.04;100709.09;4955032;28;20507;-79
2023/09/27 08:29:55;;;;;;;15.05;5.03;;;;;;;24.77;60.62;100707.13;4955797;28;20054;-77
2023/09/27 08:32:20;;;;;;;18.65;5.25;;;;;;;24.80;59.76;100692.09;4973557;28;20477;-79
2023/09/27 08:34:46;;;;;;;12.30;4.70;;;;;;;24.91;60.05;100713.03;4960463;28;20533;-78
2023/09/27 08:37:12;;;;;;;17.83;4.60;;;;;;;25.09;60.52;100708.28;4976445;28;20560;-79
2023/09/27 08:39:40;;;;;;;14.32;4.53;;;;;;;25.14;60.56;100707.28;4991514;28;20114;-79
2023/09/27 08:42:06;;;;;;;18.27;5.25;;;;;;;25.00;59.45;100702.28;4977657;28;20051;-80
2023/09/27 08:44:32;;;;;;;15.85;4.50;;;;;;;25.10;59.24;100716.19;4993477;28;20034;-81
2023/09/27 08:46:58;;;;;;;16.13;5.07;;;;;;;25.21;58.83;100713.34;5028026;28;20095;-77
2023/09/27 08:49:25;;;;;;;16.48;4.68;;;;;;;25.29;60.10;100715.81;5037153;28;20036;-80
2023/09/27 08:51:52;;;;;;;14.55;4.43;;;;;;;25.39;58.76;100705.97;5036966;28;20102;-77
2023/09/27 08:54:20;;;;;;;9.55;4.03;;;;;;;25.57;59.39;100700.28;5055538;28;20033;-77
2023/09/27 08:56:53;;;;;;;17.67;4.82;;;;;;;25.74;59.28;100706.97;5037809;28;20033;-81
2023/09/27 08:59:20;;;;;;;16.98;4.22;;;;;;;25.64;57.11;100707.16;5037860;28;20024;-78
2023/09/27 09:01:46;;;;;;;18.65;4.70;;;;;;;25.59;58.17;100702.88;5055664;28;20033;-74
2023/09/27 09:04:12;;;;;;;19.30;4.43;;;;;;;25.57;59.36;100705.56;5037992;28;20082;-77
2023/09/27 09:06:39;;;;;;;15.02;4.40;;;;;;;25.54;57.33;100699.47;5053737;28;20510;-77
2023/09/27 09:09:15;;;;;;;23.55;5.38;;;;;;;25.69;57.64;100707.06;5052771;28;20115;-76
2023/09/27 09:11:48;;;;;;;25.90;5.30;;;;;;;25.49;58.91;100675.78;5034442;28;20136;-77
2023/09/27 09:14:21;;;;;;;12.18;4.30;;;;;;;25.51;57.46;100688.06;5034975;28;20117;-78
2023/09/27 09:16:51;;;;;;;10.95;4.43;;;;;;;25.65;57.59;100703.63;5052500;28;20024;-77
2023/09/27 09:19:42;;;;;;;14.65;4.53;;;;;;;25.62;57.97;100693.13;5034696;28;20389;-77
2023/09/27 09:22:08;;;;;;;10.10;3.90;;;;;;;25.37;57.28;100682.19;5000169;28;20037;-79
2023/09/27 09:24:41;;;;;;;10.48;4.15;;;;;;;25.38;56.83;100683.94;4993562;28;20065;-82
2023/09/27 09:27:14;;;;;;;9.18;3.60;;;;;;;25.39;56.00;100687.47;4993953;28;20088;-75
2023/09/27 09:29:48;;;;;;;13.00;3.90;;;;;;;25.27;57.67;100678.88;5010150;28;20191;-82
2023/09/27 09:32:18;;;;;;;9.70;4.40;;;;;;;25.07;57.66;100660.75;5010051;28;20064;-83
2023/09/27 09:34:51;;;;;;;12.20;4.05;;;;;;;24.76;58.60;100605.03;5009831;28;20194;-78
2023/09/27 09:37:20;;;;;;;10.25;4.15;;;;;;;25.28;58.31;100685.88;4993663;28;20038;-76
2023/09/27 09:39:49;;;;;;;11.45;4.32;;;;;;;24.89;58.27;100617.09;5009807;28;20064;-77
2023/09/27 09:42:29;;;;;;;10.77;5.00;;;;;;;25.31;56.61;100663.78;5009989;28;20116;-77
2023/09/27 09:45:06;;;;;;;16.98;3.83;;;;;;;25.66;54.56;100688.63;5009613;28;20045;-76
2023/09/27 09:47:35;;;;;;;18.20;4.60;;;;;;;25.70;53.83;100670.94;4970611;28;20113;-81
2023/09/27 09:50:06;;;;;;;18.73;4.88;;;;;;;25.59;56.04;100673.81;4970659;28;20066;-77
2023/09/27 09:52:35;;;;;;;12.73;4.38;;;;;;;25.55;54.97;100665.06;4980592;28;20045;-77
2023/09/27 09:55:03;;;;;;;11.02;4.05;;;;;;;25.76;54.80;100695.44;5009848;28;20034;-75
2023/09/27 09:57:35;;;;;;;20.33;4.28;;;;;;;25.88;54.80;100670.47;4992825;28;20477;-76
2023/09/27 10:00:25;;;;;;;12.18;4.00;;;;;;;26.38;54.27;100683.44;5009843;28;20026;-76
2023/09/27 10:03:01;;;;;;;19.70;5.00;;;;;;;26.44;51.80;100695.63;5009816;28;20038;-77
2023/09/27 10:05:38;;;;;;;12.93;3.83;;;;;;;26.29;52.03;100676.59;5009360;28;20037;-77
2023/09/27 10:08:04;;;;;;;16.98;4.60;;;;;;;26.15;52.57;100671.63;4993043;28;20041;-76
2023/09/27 10:10:31;;;;;;;14.60;4.00;;;;;;;26.12;54.35;100678.75;4992870;28;20053;-77
2023/09/27 10:12:58;;;;;;;15.20;3.97;;;;;;;25.96;53.93;100676.47;4992770;28;20042;-81
2023/09/27 10:15:25;;;;;;;15.75;4.95;;;;;;;26.05;56.62;100662.16;4992837;28;20489;-80
2023/09/27 10:17:50;;;;;;;19.65;5.38;;;;;;;26.32;55.86;100644.75;5001624;28;20045;-76
2023/09/27 10:20:20;;;;;;;11.38;4.63;;;;;;;26.15;54.29;100609.91;5032897;28;20127;-76
2023/09/27 10:22:47;;;;;;;14.02;4.25;;;;;;;26.54;55.20;100660.06;5051575;28;20036;-76
2023/09/27 10:25:31;;;;;;;12.55;3.92;;;;;;;26.71;51.86;100656.09;5033091;28;20028;-77
2023/09/27 10:27:59;;;;;;;14.85;5.13;;;;;;;26.99;54.49;100644.75;5033406;28;20035;-77
2023/09/27 10:30:39;;;;;;;20.15;4.28;;;;;;;27.02;50.58;100650.00;5051489;28;20494;-76
2023/09/27 10:33:17;;;;;;;18.38;4.22;;;;;;;26.84;50.49;100646.06;5050817;28;20100;-77
2023/09/27 10:36:07;;;;;;;16.10;4.28;;;;;;;26.58;52.63;100635.25;5033544;28;20036;-76
2023/09/27 10:38:42;;;;;;;16.02;4.18;;;;;;;26.61;53.78;100642.25;5020471;28;20025;-79
2023/09/27 10:41:29;;;;;;;17.38;4.15;;;;;;;26.30;52.58;100601.56;5050427;28;20481;-78
2023/09/27 10:43:54;;;;;;;12.20;4.68;;;;;;;26.10;52.83;100559.75;5050733;28;20048;-75
2023/09/27 10:46:20;;;;;;;24.85;4.38;;;;;;;26.32;51.76;100610.34;5050217;28;20021;-78
2023/09/27 10:48:56;;;;;;;10.85;3.72;;;;;;;26.63;49.07;100614.81;5033136;28;20044;-78
2023/09/27 10:51:24;;;;;;;15.27;3.90;;;;;;;26.91;49.17;100605.25;5050797;28;20132;-77
2023/09/27 10:53:50;;;;;;;18.88;4.63;;;;;;;26.84;50.09;100596.59;5032850;28;20209;-77
2023/09/27 10:56:16;;;;;;;14.95;4.00;;;;;;;26.55;51.42;100562.97;5032795;28;20064;-82
2023/09/27 10:58:49;;;;;;;13.70;4.28;;;;;;;27.10;49.49;100610.88;5050520;28;20488;-77
2023/09/27 11:01:22;;;;;;;15.10;4.20;;;;;;;26.82;49.12;100550.75;5037884;28;20029;-75
2023/09/27 11:03:56;;;;;;;13.15;4.70;;;;;;;27.61;48.22;100606.69;5032598;28;20452;-79
2023/09/27 11:06:21;;;;;;;13.70;4.38;;;;;;;27.92;47.93;100609.22;5032913;28;20108;-77
2023/09/27 11:08:47;;;;;;;18.75;4.45;;;;;;;27.99;46.71;100595.72;5050711;28;20159;-81
2023/09/27 11:11:12;;;;;;;12.27;4.05;;;;;;;27.98;45.15;100600.19;5032583;28;20095;-77
2023/09/27 11:13:45;;;;;;;22.23;4.72;;;;;;;27.80;46.59;100585.72;5032141;28;20117;-78
2023/09/27 11:16:18;;;;;;;9.70;4.20;;;;;;;28.02;46.45;100600.94;5050401;28;20074;-84
2023/09/27 11:18:51;;;;;;;17.52;4.32;;;;;;;27.91;46.37;100588.91;5031845;28;20138;-79